sensor_id;sensor_type;location;lat;lon;timestamp;P1;durP1;ratioP1;P2;durP2;ratioP2
11943;SDS011;6031;50.220;10.122;2022-09-29T00:00:51;10.50;;;7.37;;
11943;SDS011;6031;50.220;10.122;2022-09-29T00:03:18;9.10;;;7.77;;
11943;SDS011;6031;50.220;10.122;2022-09-29T00:05:47;9.73;;;7.30;;
11943;SDS011;6031;50.220;10.122;2022-09-29T00:08:17;7.97;;;6.37;;
11943;SDS011;6031;50.220;10.122;2022-09-29T00:10:44;10.23;;;6.63;;
11943;SDS011;6031;50.220;10.122;2022-09-29T00:13:11;6.83;;;5.13;;
11943;SDS011;6031;50.220;10.122;2022-09-29T00:15:37;7.17;;;5.07;;
11943;SDS011;6031;50.220;10.122;2022-09-29T00:18:03;6.90;;;4.97;;
11943;SDS011;6031;50.220;10.122;2022-09-29T00:20:29;7.00;;;5.77;;
11943;SDS011;6031;50.220;10.122;2022-09-29T00:22:55;7.23;;;5.23;;
11943;SDS011;6031;50.220;10.122;2022-09-29T00:25:20;7.23;;;5.77;;
11943;SDS011;6031;50.220;10.122;2022-09-29T00:27:47;6.00;;;4.80;;
11943;SDS011;6031;50.220;10.122;2022-09-29T00:30:12;5.70;;;4.80;;
11943;SDS011;6031;50.220;10.122;2022-09-29T00:32:38;6.80;;;5.80;;
11943;SDS011;6031;50.220;10.122;2022-09-29T00:35:04;7.87;;;5.00;;
11943;SDS011;6031;50.220;10.122;2022-09-29T00:37:32;5.53;;;5.00;;
11943;SDS011;6031;50.220;10.122;2022-09-29T00:39:57;6.00;;;5.33;;
11943;SDS011;6031;50.220;10.122;2022-09-29T00:42:23;6.27;;;5.67;;
11943;SDS011;6031;50.220;10.122;2022-09-29T00:45:00;7.10;;;5.33;;
11943;SDS011;6031;50.220;10.122;2022-09-29T00:47:26;7.17;;;6.00;;
11943;SDS011;6031;50.220;10.122;2022-09-29T00:49:58;7.27;;;5.63;;
11943;SDS011;6031;50.220;10.122;2022-09-29T00:52:41;9.97;;;7.67;;
11943;SDS011;6031;50.220;10.122;2022-09-29T00:55:21;12.67;;;8.40;;
11943;SDS011;6031;50.220;10.122;2022-09-29T00:58:00;12.23;;;7.97;;
11943;SDS011;6031;50.220;10.122;2022-09-29T01:00:38;13.47;;;9.23;;
11943;SDS011;6031;50.220;10.122;2022-09-29T01:03:07;14.73;;;10.50;;
11943;SDS011;6031;50.220;10.122;2022-09-29T01:05:37;15.90;;;8.63;;
11943;SDS011;6031;50.220;10.122;2022-09-29T01:08:12;8.93;;;7.17;;
11943;SDS011;6031;50.220;10.122;2022-09-29T01:10:41;9.67;;;7.13;;
11943;SDS011;6031;50.220;10.122;2022-09-29T01:13:07;10.87;;;7.97;;
11943;SDS011;6031;50.220;10.122;2022-09-29T01:15:33;14.67;;;9.03;;
11943;SDS011;6031;50.220;10.122;2022-09-29T01:17:59;9.70;;;7.40;;
11943;SDS011;6031;50.220;10.122;2022-09-29T01:20:25;28.57;;;8.97;;
11943;SDS011;6031;50.220;10.122;2022-09-29T01:37:00;6.00;;;5.27;;
11943;SDS011;6031;50.220;10.122;2022-09-29T01:39:34;6.90;;;5.47;;
11943;SDS011;6031;50.220;10.122;2022-09-29T01:42:11;6.00;;;5.50;;
11943;SDS011;6031;50.220;10.122;2022-09-29T01:44:42;8.93;;;5.80;;
11943;SDS011;6031;50.220;10.122;2022-09-29T01:47:15;7.97;;;4.97;;
11943;SDS011;6031;50.220;10.122;2022-09-29T01:49:48;7.50;;;5.47;;
11943;SDS011;6031;50.220;10.122;2022-09-29T01:52:19;5.53;;;5.00;;
11943;SDS011;6031;50.220;10.122;2022-09-29T01:54:49;4.93;;;4.43;;
11943;SDS011;6031;50.220;10.122;2022-09-29T01:57:28;6.10;;;5.27;;
11943;SDS011;6031;50.220;10.122;2022-09-29T02:02:42;5.90;;;5.17;;
11943;SDS011;6031;50.220;10.122;2022-09-29T02:05:19;6.80;;;5.03;;
11943;SDS011;6031;50.220;10.122;2022-09-29T02:07:46;5.80;;;4.80;;
11943;SDS011;6031;50.220;10.122;2022-09-29T02:10:23;11.80;;;5.73;;
11943;SDS011;6031;50.220;10.122;2022-09-29T02:12:53;5.77;;;5.07;;
11943;SDS011;6031;50.220;10.122;2022-09-29T02:15:22;8.03;;;5.77;;
11943;SDS011;6031;50.220;10.122;2022-09-29T02:17:51;5.10;;;4.60;;
11943;SDS011;6031;50.220;10.122;2022-09-29T02:20:21;5.77;;;4.50;;
11943;SDS011;6031;50.220;10.122;2022-09-29T02:22:47;5.63;;;5.13;;
11943;SDS011;6031;50.220;10.122;2022-09-29T02:25:13;8.30;;;5.20;;
11943;SDS011;6031;50.220;10.122;2022-09-29T02:27:42;5.57;;;5.03;;
11943;SDS011;6031;50.220;10.122;2022-09-29T02:30:09;6.13;;;5.33;;
11943;SDS011;6031;50.220;10.122;2022-09-29T02:32:35;5.50;;;4.97;;
11943;SDS011;6031;50.220;10.122;2022-09-29T02:35:01;6.10;;;5.50;;
11943;SDS011;6031;50.220;10.122;2022-09-29T02:40:25;7.63;;;5.50;;
11943;SDS011;6031;50.220;10.122;2022-09-29T02:43:08;6.13;;;4.93;;
11943;SDS011;6031;50.220;10.122;2022-09-29T02:48:47;7.37;;;5.47;;
11943;SDS011;6031;50.220;10.122;2022-09-29T02:51:36;8.50;;;6.40;;
11943;SDS011;6031;50.220;10.122;2022-09-29T02:54:12;7.03;;;6.33;;
11943;SDS011;6031;50.220;10.122;2022-09-29T02:59:39;8.00;;;5.97;;
11943;SDS011;6031;50.220;10.122;2022-09-29T03:02:21;7.43;;;5.90;;
11943;SDS011;6031;50.220;10.122;2022-09-29T03:04:48;9.87;;;6.53;;
11943;SDS011;6031;50.220;10.122;2022-09-29T03:07:14;7.37;;;6.23;;
11943;SDS011;6031;50.220;10.122;2022-09-29T03:09:39;10.50;;;6.40;;
11943;SDS011;6031;50.220;10.122;2022-09-29T03:12:05;7.43;;;6.73;;
11943;SDS011;6031;50.220;10.122;2022-09-29T03:14:30;8.47;;;6.87;;
11943;SDS011;6031;50.220;10.122;2022-09-29T03:16:56;8.83;;;6.73;;
11943;SDS011;6031;50.220;10.122;2022-09-29T03:19:21;11.77;;;7.17;;
11943;SDS011;6031;50.220;10.122;2022-09-29T03:21:47;10.00;;;7.50;;
11943;SDS011;6031;50.220;10.122;2022-09-29T03:24:13;9.90;;;7.47;;
11943;SDS011;6031;50.220;10.122;2022-09-29T03:26:38;7.83;;;6.83;;
11943;SDS011;6031;50.220;10.122;2022-09-29T03:29:04;9.33;;;8.23;;
11943;SDS011;6031;50.220;10.122;2022-09-29T03:31:29;8.20;;;7.13;;
11943;SDS011;6031;50.220;10.122;2022-09-29T03:33:55;7.57;;;6.40;;
11943;SDS011;6031;50.220;10.122;2022-09-29T03:36:21;10.10;;;7.73;;
11943;SDS011;6031;50.220;10.122;2022-09-29T03:38:46;10.60;;;8.07;;
11943;SDS011;6031;50.220;10.122;2022-09-29T03:41:12;8.07;;;7.00;;
11943;SDS011;6031;50.220;10.122;2022-09-29T03:43:37;10.97;;;7.47;;
11943;SDS011;6031;50.220;10.122;2022-09-29T03:46:03;9.23;;;7.17;;
11943;SDS011;6031;50.220;10.122;2022-09-29T03:48:29;7.47;;;6.67;;
11943;SDS011;6031;50.220;10.122;2022-09-29T03:50:55;8.33;;;7.30;;
11943;SDS011;6031;50.220;10.122;2022-09-29T03:53:21;8.77;;;7.47;;
11943;SDS011;6031;50.220;10.122;2022-09-29T03:55:47;7.17;;;6.43;;
11943;SDS011;6031;50.220;10.122;2022-09-29T03:58:13;8.40;;;6.60;;
11943;SDS011;6031;50.220;10.122;2022-09-29T04:00:40;8.73;;;6.63;;
11943;SDS011;6031;50.220;10.122;2022-09-29T04:03:06;8.10;;;6.80;;
11943;SDS011;6031;50.220;10.122;2022-09-29T04:05:31;9.00;;;6.97;;
11943;SDS011;6031;50.220;10.122;2022-09-29T04:08:02;7.97;;;6.70;;
11943;SDS011;6031;50.220;10.122;2022-09-29T04:10:36;8.23;;;7.43;;
11943;SDS011;6031;50.220;10.122;2022-09-29T04:13:03;8.10;;;6.80;;
11943;SDS011;6031;50.220;10.122;2022-09-29T04:15:29;8.17;;;6.87;;
11943;SDS011;6031;50.220;10.122;2022-09-29T04:17:55;9.00;;;7.77;;
11943;SDS011;6031;50.220;10.122;2022-09-29T04:20:21;9.27;;;7.93;;
11943;SDS011;6031;50.220;10.122;2022-09-29T04:22:47;8.60;;;7.70;;
11943;SDS011;6031;50.220;10.122;2022-09-29T04:25:12;8.90;;;7.90;;
11943;SDS011;6031;50.220;10.122;2022-09-29T04:27:38;11.17;;;9.13;;
11943;SDS011;6031;50.220;10.122;2022-09-29T04:30:04;13.23;;;9.33;;
11943;SDS011;6031;50.220;10.122;2022-09-29T04:32:30;9.83;;;8.00;;
11943;SDS011;6031;50.220;10.122;2022-09-29T04:34:56;10.60;;;7.70;;
11943;SDS011;6031;50.220;10.122;2022-09-29T04:37:22;12.10;;;8.23;;
11943;SDS011;6031;50.220;10.122;2022-09-29T04:39:47;9.93;;;8.30;;
11943;SDS011;6031;50.220;10.122;2022-09-29T04:42:13;10.90;;;8.83;;
11943;SDS011;6031;50.220;10.122;2022-09-29T04:44:38;9.63;;;8.43;;
11943;SDS011;6031;50.220;10.122;2022-09-29T04:47:04;11.43;;;8.93;;
11943;SDS011;6031;50.220;10.122;2022-09-29T04:49:29;11.37;;;9.53;;
11943;SDS011;6031;50.220;10.122;2022-09-29T04:51:55;13.13;;;11.17;;
11943;SDS011;6031;50.220;10.122;2022-09-29T04:54:21;14.27;;;9.33;;
11943;SDS011;6031;50.220;10.122;2022-09-29T04:56:47;10.87;;;9.73;;
11943;SDS011;6031;50.220;10.122;2022-09-29T04:59:13;12.70;;;9.77;;
11943;SDS011;6031;50.220;10.122;2022-09-29T05:01:39;12.67;;;9.03;;
11943;SDS011;6031;50.220;10.122;2022-09-29T05:04:04;12.53;;;9.87;;
11943;SDS011;6031;50.220;10.122;2022-09-29T05:06:31;13.83;;;9.60;;
11943;SDS011;6031;50.220;10.122;2022-09-29T05:08:57;9.57;;;8.57;;
11943;SDS011;6031;50.220;10.122;2022-09-29T05:11:22;11.77;;;9.97;;
11943;SDS011;6031;50.220;10.122;2022-09-29T05:13:48;15.30;;;10.20;;
11943;SDS011;6031;50.220;10.122;2022-09-29T05:16:15;12.30;;;9.63;;
11943;SDS011;6031;50.220;10.122;2022-09-29T05:18:40;13.10;;;10.13;;
11943;SDS011;6031;50.220;10.122;2022-09-29T05:21:06;12.67;;;10.00;;
11943;SDS011;6031;50.220;10.122;2022-09-29T05:23:33;16.13;;;10.57;;
11943;SDS011;6031;50.220;10.122;2022-09-29T05:26:00;14.87;;;11.03;;
11943;SDS011;6031;50.220;10.122;2022-09-29T05:28:26;15.07;;;10.87;;
11943;SDS011;6031;50.220;10.122;2022-09-29T05:30:52;13.87;;;9.93;;
11943;SDS011;6031;50.220;10.122;2022-09-29T05:33:17;15.10;;;10.23;;
11943;SDS011;6031;50.220;10.122;2022-09-29T05:35:42;10.20;;;9.17;;
11943;SDS011;6031;50.220;10.122;2022-09-29T05:38:08;13.57;;;9.67;;
11943;SDS011;6031;50.220;10.122;2022-09-29T05:40:34;13.83;;;10.93;;
11943;SDS011;6031;50.220;10.122;2022-09-29T05:43:01;13.13;;;10.13;;
11943;SDS011;6031;50.220;10.122;2022-09-29T05:45:27;14.43;;;10.57;;
11943;SDS011;6031;50.220;10.122;2022-09-29T05:47:52;13.57;;;10.53;;
11943;SDS011;6031;50.220;10.122;2022-09-29T05:50:18;13.60;;;10.47;;
11943;SDS011;6031;50.220;10.122;2022-09-29T05:52:44;13.20;;;10.40;;
11943;SDS011;6031;50.220;10.122;2022-09-29T05:55:13;13.20;;;10.70;;
11943;SDS011;6031;50.220;10.122;2022-09-29T05:57:39;11.57;;;10.37;;
11943;SDS011;6031;50.220;10.122;2022-09-29T06:00:05;16.47;;;11.67;;
11943;SDS011;6031;50.220;10.122;2022-09-29T06:02:31;17.37;;;12.43;;
11943;SDS011;6031;50.220;10.122;2022-09-29T06:04:58;14.00;;;11.33;;
11943;SDS011;6031;50.220;10.122;2022-09-29T06:07:23;13.43;;;11.63;;
11943;SDS011;6031;50.220;10.122;2022-09-29T06:09:49;14.83;;;11.00;;
11943;SDS011;6031;50.220;10.122;2022-09-29T06:12:14;14.70;;;10.77;;
11943;SDS011;6031;50.220;10.122;2022-09-29T06:14:40;12.63;;;10.53;;
11943;SDS011;6031;50.220;10.122;2022-09-29T06:17:05;14.67;;;11.63;;
11943;SDS011;6031;50.220;10.122;2022-09-29T06:19:31;16.63;;;12.20;;
11943;SDS011;6031;50.220;10.122;2022-09-29T06:21:56;13.00;;;11.00;;
11943;SDS011;6031;50.220;10.122;2022-09-29T06:24:22;13.80;;;10.73;;
11943;SDS011;6031;50.220;10.122;2022-09-29T06:26:48;14.27;;;10.67;;
11943;SDS011;6031;50.220;10.122;2022-09-29T06:29:13;14.83;;;12.17;;
11943;SDS011;6031;50.220;10.122;2022-09-29T06:31:39;14.77;;;10.83;;
11943;SDS011;6031;50.220;10.122;2022-09-29T06:34:05;16.37;;;11.37;;
11943;SDS011;6031;50.220;10.122;2022-09-29T06:36:33;12.77;;;11.00;;
11943;SDS011;6031;50.220;10.122;2022-09-29T06:39:21;17.23;;;11.80;;
11943;SDS011;6031;50.220;10.122;2022-09-29T06:41:47;18.20;;;12.80;;
11943;SDS011;6031;50.220;10.122;2022-09-29T06:44:17;12.67;;;10.67;;
11943;SDS011;6031;50.220;10.122;2022-09-29T06:46:43;14.47;;;11.33;;
11943;SDS011;6031;50.220;10.122;2022-09-29T06:49:12;15.17;;;11.60;;
11943;SDS011;6031;50.220;10.122;2022-09-29T06:51:39;12.87;;;10.63;;
11943;SDS011;6031;50.220;10.122;2022-09-29T06:54:06;14.47;;;9.80;;
11943;SDS011;6031;50.220;10.122;2022-09-29T06:56:32;11.90;;;9.67;;
11943;SDS011;6031;50.220;10.122;2022-09-29T06:58:57;11.97;;;10.03;;
11943;SDS011;6031;50.220;10.122;2022-09-29T07:01:23;12.63;;;10.30;;
11943;SDS011;6031;50.220;10.122;2022-09-29T07:03:48;13.77;;;9.37;;
11943;SDS011;6031;50.220;10.122;2022-09-29T07:06:14;11.93;;;9.23;;
11943;SDS011;6031;50.220;10.122;2022-09-29T07:08:39;9.83;;;8.57;;
11943;SDS011;6031;50.220;10.122;2022-09-29T07:11:05;10.13;;;8.90;;
11943;SDS011;6031;50.220;10.122;2022-09-29T07:13:31;9.93;;;7.90;;
11943;SDS011;6031;50.220;10.122;2022-09-29T07:18:31;10.53;;;8.80;;
11943;SDS011;6031;50.220;10.122;2022-09-29T07:21:01;10.77;;;7.90;;
11943;SDS011;6031;50.220;10.122;2022-09-29T07:23:28;9.67;;;8.17;;
11943;SDS011;6031;50.220;10.122;2022-09-29T07:25:54;10.93;;;8.03;;
11943;SDS011;6031;50.220;10.122;2022-09-29T07:28:19;11.13;;;8.40;;
11943;SDS011;6031;50.220;10.122;2022-09-29T07:30:45;12.83;;;8.70;;
11943;SDS011;6031;50.220;10.122;2022-09-29T07:33:10;10.20;;;8.47;;
11943;SDS011;6031;50.220;10.122;2022-09-29T07:35:36;14.13;;;9.73;;
11943;SDS011;6031;50.220;10.122;2022-09-29T07:38:01;13.83;;;9.47;;
11943;SDS011;6031;50.220;10.122;2022-09-29T07:40:27;14.47;;;9.07;;
11943;SDS011;6031;50.220;10.122;2022-09-29T07:42:52;16.40;;;9.70;;
11943;SDS011;6031;50.220;10.122;2022-09-29T07:45:18;14.70;;;9.60;;
11943;SDS011;6031;50.220;10.122;2022-09-29T07:47:44;17.37;;;9.63;;
11943;SDS011;6031;50.220;10.122;2022-09-29T07:50:10;15.00;;;9.20;;
11943;SDS011;6031;50.220;10.122;2022-09-29T07:52:35;12.60;;;9.17;;
11943;SDS011;6031;50.220;10.122;2022-09-29T07:55:01;12.10;;;9.00;;
11943;SDS011;6031;50.220;10.122;2022-09-29T07:57:27;10.37;;;9.27;;
11943;SDS011;6031;50.220;10.122;2022-09-29T07:59:53;13.83;;;9.67;;
11943;SDS011;6031;50.220;10.122;2022-09-29T08:02:19;11.30;;;8.90;;
11943;SDS011;6031;50.220;10.122;2022-09-29T08:04:45;14.37;;;8.80;;
11943;SDS011;6031;50.220;10.122;2022-09-29T08:07:11;12.67;;;9.67;;
11943;SDS011;6031;50.220;10.122;2022-09-29T08:09:36;13.97;;;10.00;;
11943;SDS011;6031;50.220;10.122;2022-09-29T08:12:02;11.10;;;9.37;;
11943;SDS011;6031;50.220;10.122;2022-09-29T08:14:28;13.23;;;9.57;;
11943;SDS011;6031;50.220;10.122;2022-09-29T08:16:53;11.97;;;9.27;;
11943;SDS011;6031;50.220;10.122;2022-09-29T08:19:19;14.63;;;9.97;;
11943;SDS011;6031;50.220;10.122;2022-09-29T08:21:44;15.80;;;12.03;;
11943;SDS011;6031;50.220;10.122;2022-09-29T08:24:13;20.37;;;13.83;;
11943;SDS011;6031;50.220;10.122;2022-09-29T08:26:39;11.23;;;9.53;;
11943;SDS011;6031;50.220;10.122;2022-09-29T08:29:05;10.53;;;7.27;;
11943;SDS011;6031;50.220;10.122;2022-09-29T08:31:31;12.90;;;8.37;;
11943;SDS011;6031;50.220;10.122;2022-09-29T08:33:57;9.37;;;7.57;;
11943;SDS011;6031;50.220;10.122;2022-09-29T08:36:23;9.47;;;7.93;;
11943;SDS011;6031;50.220;10.122;2022-09-29T08:38:50;9.70;;;8.63;;
11943;SDS011;6031;50.220;10.122;2022-09-29T08:43:53;9.20;;;7.57;;
11943;SDS011;6031;50.220;10.122;2022-09-29T08:48:55;10.70;;;8.47;;
11943;SDS011;6031;50.220;10.122;2022-09-29T08:51:33;9.33;;;8.17;;
11943;SDS011;6031;50.220;10.122;2022-09-29T08:54:16;13.30;;;8.47;;
11943;SDS011;6031;50.220;10.122;2022-09-29T08:56:55;11.00;;;8.30;;
11943;SDS011;6031;50.220;10.122;2022-09-29T08:59:22;11.07;;;8.17;;
11943;SDS011;6031;50.220;10.122;2022-09-29T09:10:44;9.37;;;8.37;;
11943;SDS011;6031;50.220;10.122;2022-09-29T09:21:19;11.83;;;7.77;;
11943;SDS011;6031;50.220;10.122;2022-09-29T09:24:02;10.03;;;8.47;;
11943;SDS011;6031;50.220;10.122;2022-09-29T09:26:40;12.87;;;8.83;;
11943;SDS011;6031;50.220;10.122;2022-09-29T09:29:31;13.73;;;9.03;;
11943;SDS011;6031;50.220;10.122;2022-09-29T09:34:37;10.03;;;8.50;;
11943;SDS011;6031;50.220;10.122;2022-09-29T09:37:17;11.17;;;8.97;;
11943;SDS011;6031;50.220;10.122;2022-09-29T09:39:54;10.97;;;7.93;;
11943;SDS011;6031;50.220;10.122;2022-09-29T09:42:28;9.90;;;8.27;;
11943;SDS011;6031;50.220;10.122;2022-09-29T09:45:02;11.73;;;9.80;;
11943;SDS011;6031;50.220;10.122;2022-09-29T09:47:41;12.30;;;8.93;;
11943;SDS011;6031;50.220;10.122;2022-09-29T09:50:17;10.83;;;9.00;;
11943;SDS011;6031;50.220;10.122;2022-09-29T09:52:50;8.87;;;7.93;;
11943;SDS011;6031;50.220;10.122;2022-09-29T09:55:18;10.30;;;7.93;;
11943;SDS011;6031;50.220;10.122;2022-09-29T10:00:43;10.47;;;8.53;;
11943;SDS011;6031;50.220;10.122;2022-09-29T10:03:12;11.53;;;8.87;;
11943;SDS011;6031;50.220;10.122;2022-09-29T10:05:41;13.43;;;9.73;;
11943;SDS011;6031;50.220;10.122;2022-09-29T10:08:10;12.50;;;9.27;;
11943;SDS011;6031;50.220;10.122;2022-09-29T10:10:40;12.80;;;9.03;;
11943;SDS011;6031;50.220;10.122;2022-09-29T10:13:08;13.47;;;8.63;;
11943;SDS011;6031;50.220;10.122;2022-09-29T10:15:37;9.70;;;8.70;;
11943;SDS011;6031;50.220;10.122;2022-09-29T10:18:20;9.63;;;8.63;;
11943;SDS011;6031;50.220;10.122;2022-09-29T10:20:51;14.83;;;9.30;;
11943;SDS011;6031;50.220;10.122;2022-09-29T10:25:50;10.27;;;8.00;;
11943;SDS011;6031;50.220;10.122;2022-09-29T10:28:19;9.40;;;7.80;;
11943;SDS011;6031;50.220;10.122;2022-09-29T10:30:46;8.50;;;7.60;;
11943;SDS011;6031;50.220;10.122;2022-09-29T10:33:16;10.70;;;7.27;;
11943;SDS011;6031;50.220;10.122;2022-09-29T10:35:45;10.27;;;8.27;;
11943;SDS011;6031;50.220;10.122;2022-09-29T10:38:22;11.93;;;7.63;;
11943;SDS011;6031;50.220;10.122;2022-09-29T10:41:08;10.07;;;7.33;;
11943;SDS011;6031;50.220;10.122;2022-09-29T10:43:35;8.13;;;7.23;;
11943;SDS011;6031;50.220;10.122;2022-09-29T10:46:03;8.57;;;5.77;;
11943;SDS011;6031;50.220;10.122;2022-09-29T10:48:29;7.83;;;6.43;;
11943;SDS011;6031;50.220;10.122;2022-09-29T10:50:59;7.70;;;6.20;;
11943;SDS011;6031;50.220;10.122;2022-09-29T10:56:18;10.47;;;6.17;;
11943;SDS011;6031;50.220;10.122;2022-09-29T10:58:54;6.87;;;6.17;;
11943;SDS011;6031;50.220;10.122;2022-09-29T11:01:22;7.00;;;6.33;;
11943;SDS011;6031;50.220;10.122;2022-09-29T11:03:52;7.93;;;5.70;;
11943;SDS011;6031;50.220;10.122;2022-09-29T11:06:37;6.30;;;5.63;;
11943;SDS011;6031;50.220;10.122;2022-09-29T11:09:05;8.23;;;5.80;;
11943;SDS011;6031;50.220;10.122;2022-09-29T11:11:58;9.00;;;7.33;;
11943;SDS011;6031;50.220;10.122;2022-09-29T11:17:01;8.40;;;6.87;;
11943;SDS011;6031;50.220;10.122;2022-09-29T11:19:46;7.00;;;5.73;;
11943;SDS011;6031;50.220;10.122;2022-09-29T11:25:29;8.10;;;6.63;;
11943;SDS011;6031;50.220;10.122;2022-09-29T11:41:43;5.93;;;5.20;;
11943;SDS011;6031;50.220;10.122;2022-09-29T11:47:37;7.47;;;5.23;;
11943;SDS011;6031;50.220;10.122;2022-09-29T12:14:50;5.93;;;3.70;;
11943;SDS011;6031;50.220;10.122;2022-09-29T12:17:26;4.30;;;3.73;;
11943;SDS011;6031;50.220;10.122;2022-09-29T12:20:40;7.53;;;3.80;;
11943;SDS011;6031;50.220;10.122;2022-09-29T12:22:46;4.50;;;3.43;;
11943;SDS011;6031;50.220;10.122;2022-09-29T12:25:14;4.13;;;3.30;;
11943;SDS011;6031;50.220;10.122;2022-09-29T12:27:43;3.73;;;3.20;;
11943;SDS011;6031;50.220;10.122;2022-09-29T12:30:17;4.00;;;3.40;;
11943;SDS011;6031;50.220;10.122;2022-09-29T12:32:55;7.23;;;3.47;;
11943;SDS011;6031;50.220;10.122;2022-09-29T12:35:40;3.23;;;2.83;;
11943;SDS011;6031;50.220;10.122;2022-09-29T12:38:35;3.90;;;3.50;;
11943;SDS011;6031;50.220;10.122;2022-09-29T12:41:13;2.77;;;2.57;;
11943;SDS011;6031;50.220;10.122;2022-09-29T12:46:45;4.57;;;3.17;;
11943;SDS011;6031;50.220;10.122;2022-09-29T12:49:24;5.70;;;3.00;;
11943;SDS011;6031;50.220;10.122;2022-09-29T12:51:52;3.70;;;2.57;;
11943;SDS011;6031;50.220;10.122;2022-09-29T12:56:55;2.77;;;2.47;;
11943;SDS011;6031;50.220;10.122;2022-09-29T12:59:27;2.40;;;2.20;;
11943;SDS011;6031;50.220;10.122;2022-09-29T13:02:18;2.10;;;2.00;;
11943;SDS011;6031;50.220;10.122;2022-09-29T13:10:45;1.90;;;1.73;;
11943;SDS011;6031;50.220;10.122;2022-09-29T13:13:57;2.43;;;2.07;;
11943;SDS011;6031;50.220;10.122;2022-09-29T13:22:47;2.17;;;1.97;;
11943;SDS011;6031;50.220;10.122;2022-09-29T13:25:31;8.30;;;2.40;;
11943;SDS011;6031;50.220;10.122;2022-09-29T13:28:00;3.63;;;2.23;;
11943;SDS011;6031;50.220;10.122;2022-09-29T13:30:31;3.33;;;2.30;;
11943;SDS011;6031;50.220;10.122;2022-09-29T13:35:37;2.07;;;1.60;;
11943;SDS011;6031;50.220;10.122;2022-09-29T13:38:06;1.87;;;1.70;;
11943;SDS011;6031;50.220;10.122;2022-09-29T13:40:38;2.87;;;1.37;;
11943;SDS011;6031;50.220;10.122;2022-09-29T13:43:03;1.77;;;1.63;;
11943;SDS011;6031;50.220;10.122;2022-09-29T13:48:02;1.93;;;1.70;;
11943;SDS011;6031;50.220;10.122;2022-09-29T13:50:55;2.10;;;1.67;;
11943;SDS011;6031;50.220;10.122;2022-09-29T14:00:52;6.23;;;1.90;;
11943;SDS011;6031;50.220;10.122;2022-09-29T14:06:18;3.83;;;1.80;;
11943;SDS011;6031;50.220;10.122;2022-09-29T14:11:20;1.97;;;1.80;;
11943;SDS011;6031;50.220;10.122;2022-09-29T14:14:03;2.63;;;1.50;;
11943;SDS011;6031;50.220;10.122;2022-09-29T14:16:37;1.53;;;1.43;;
11943;SDS011;6031;50.220;10.122;2022-09-29T14:30:44;3.43;;;2.27;;
11943;SDS011;6031;50.220;10.122;2022-09-29T14:38:23;3.50;;;2.13;;
11943;SDS011;6031;50.220;10.122;2022-09-29T14:43:35;4.00;;;1.77;;
11943;SDS011;6031;50.220;10.122;2022-09-29T15:00:11;4.23;;;1.90;;
11943;SDS011;6031;50.220;10.122;2022-09-29T15:02:52;1.90;;;1.57;;
11943;SDS011;6031;50.220;10.122;2022-09-29T15:07:55;3.30;;;1.53;;
11943;SDS011;6031;50.220;10.122;2022-09-29T15:10:40;3.53;;;2.10;;
11943;SDS011;6031;50.220;10.122;2022-09-29T15:13:26;2.40;;;1.80;;
11943;SDS011;6031;50.220;10.122;2022-09-29T15:15:57;3.27;;;1.70;;
11943;SDS011;6031;50.220;10.122;2022-09-29T15:18:35;9.07;;;2.00;;
11943;SDS011;6031;50.220;10.122;2022-09-29T15:24:12;5.13;;;1.57;;
11943;SDS011;6031;50.220;10.122;2022-09-29T15:27:01;3.37;;;1.40;;
11943;SDS011;6031;50.220;10.122;2022-09-29T15:29:28;1.60;;;1.50;;
11943;SDS011;6031;50.220;10.122;2022-09-29T15:31:54;1.83;;;1.33;;
11943;SDS011;6031;50.220;10.122;2022-09-29T15:34:21;5.10;;;1.50;;
11943;SDS011;6031;50.220;10.122;2022-09-29T15:36:50;2.03;;;1.43;;
11943;SDS011;6031;50.220;10.122;2022-09-29T15:41:59;2.13;;;1.40;;
11943;SDS011;6031;50.220;10.122;2022-09-29T15:44:26;2.20;;;1.00;;
11943;SDS011;6031;50.220;10.122;2022-09-29T15:46:56;3.50;;;1.60;;
11943;SDS011;6031;50.220;10.122;2022-09-29T15:49:22;2.27;;;1.40;;
11943;SDS011;6031;50.220;10.122;2022-09-29T15:51:59;5.73;;;1.50;;
11943;SDS011;6031;50.220;10.122;2022-09-29T15:54:30;3.27;;;1.70;;
11943;SDS011;6031;50.220;10.122;2022-09-29T15:56:58;4.43;;;1.60;;
11943;SDS011;6031;50.220;10.122;2022-09-29T15:59:46;3.20;;;1.70;;
11943;SDS011;6031;50.220;10.122;2022-09-29T16:04:51;1.57;;;1.47;;
11943;SDS011;6031;50.220;10.122;2022-09-29T16:07:26;3.23;;;1.43;;
11943;SDS011;6031;50.220;10.122;2022-09-29T16:10:05;1.63;;;1.20;;
11943;SDS011;6031;50.220;10.122;2022-09-29T16:12:39;2.73;;;1.77;;
11943;SDS011;6031;50.220;10.122;2022-09-29T16:15:27;2.47;;;1.67;;
11943;SDS011;6031;50.220;10.122;2022-09-29T16:17:59;1.60;;;1.50;;
11943;SDS011;6031;50.220;10.122;2022-09-29T16:20:30;5.13;;;2.17;;
11943;SDS011;6031;50.220;10.122;2022-09-29T16:23:08;2.30;;;2.03;;
11943;SDS011;6031;50.220;10.122;2022-09-29T16:28:33;1.63;;;1.53;;
11943;SDS011;6031;50.220;10.122;2022-09-29T16:31:01;5.13;;;2.40;;
11943;SDS011;6031;50.220;10.122;2022-09-29T16:33:28;6.17;;;3.50;;
11943;SDS011;6031;50.220;10.122;2022-09-29T16:36:01;6.50;;;4.30;;
11943;SDS011;6031;50.220;10.122;2022-09-29T16:38:31;4.37;;;2.90;;
11943;SDS011;6031;50.220;10.122;2022-09-29T16:41:06;4.67;;;3.70;;
11943;SDS011;6031;50.220;10.122;2022-09-29T16:43:33;3.60;;;2.80;;
11943;SDS011;6031;50.220;10.122;2022-09-29T16:46:00;4.73;;;4.23;;
11943;SDS011;6031;50.220;10.122;2022-09-29T16:48:28;3.60;;;3.10;;
11943;SDS011;6031;50.220;10.122;2022-09-29T16:50:56;5.90;;;4.40;;
11943;SDS011;6031;50.220;10.122;2022-09-29T16:53:27;8.77;;;6.47;;
11943;SDS011;6031;50.220;10.122;2022-09-29T16:55:59;5.33;;;3.90;;
11943;SDS011;6031;50.220;10.122;2022-09-29T16:58:33;3.10;;;2.80;;
11943;SDS011;6031;50.220;10.122;2022-09-29T17:01:00;5.50;;;4.07;;
11943;SDS011;6031;50.220;10.122;2022-09-29T17:03:27;3.57;;;3.27;;
11943;SDS011;6031;50.220;10.122;2022-09-29T17:05:55;3.00;;;2.70;;
11943;SDS011;6031;50.220;10.122;2022-09-29T17:08:25;2.87;;;2.67;;
11943;SDS011;6031;50.220;10.122;2022-09-29T17:10:53;3.57;;;3.27;;
11943;SDS011;6031;50.220;10.122;2022-09-29T17:13:20;5.60;;;2.50;;
11943;SDS011;6031;50.220;10.122;2022-09-29T17:15:48;4.30;;;2.63;;
11943;SDS011;6031;50.220;10.122;2022-09-29T17:18:16;5.90;;;4.13;;
11943;SDS011;6031;50.220;10.122;2022-09-29T17:20:44;3.57;;;2.80;;
11943;SDS011;6031;50.220;10.122;2022-09-29T17:23:09;5.60;;;5.10;;
11943;SDS011;6031;50.220;10.122;2022-09-29T17:25:35;5.07;;;3.80;;
11943;SDS011;6031;50.220;10.122;2022-09-29T17:28:04;5.13;;;4.63;;
11943;SDS011;6031;50.220;10.122;2022-09-29T17:30:38;4.67;;;4.20;;
11943;SDS011;6031;50.220;10.122;2022-09-29T17:33:04;5.60;;;5.00;;
11943;SDS011;6031;50.220;10.122;2022-09-29T17:35:42;6.80;;;4.53;;
11943;SDS011;6031;50.220;10.122;2022-09-29T17:38:10;5.83;;;4.10;;
11943;SDS011;6031;50.220;10.122;2022-09-29T17:40:42;3.87;;;3.30;;
11943;SDS011;6031;50.220;10.122;2022-09-29T17:43:15;5.57;;;3.13;;
11943;SDS011;6031;50.220;10.122;2022-09-29T17:45:42;4.47;;;3.40;;
11943;SDS011;6031;50.220;10.122;2022-09-29T17:48:08;3.97;;;3.17;;
11943;SDS011;6031;50.220;10.122;2022-09-29T17:50:44;4.83;;;3.60;;
11943;SDS011;6031;50.220;10.122;2022-09-29T17:53:11;4.23;;;3.83;;
11943;SDS011;6031;50.220;10.122;2022-09-29T17:55:39;6.33;;;4.60;;
11943;SDS011;6031;50.220;10.122;2022-09-29T17:58:05;7.53;;;3.80;;
11943;SDS011;6031;50.220;10.122;2022-09-29T18:00:32;4.43;;;3.70;;
11943;SDS011;6031;50.220;10.122;2022-09-29T18:03:02;3.83;;;3.53;;
11943;SDS011;6031;50.220;10.122;2022-09-29T18:05:33;4.93;;;4.50;;
11943;SDS011;6031;50.220;10.122;2022-09-29T18:07:59;5.13;;;4.43;;